Time;durP1;ratioP1;P1;durP2;ratioP2;P2;SDS_P1;SDS_P2;PMS_P1;PMS_P2;Temp;Humidity;BMP_temperature;BMP_pressure;BME280_temperature;BME280_humidity;BME280_pressure;Samples;Min_cycle;Max_cycle;Signal;HPM_P1;HPM_P2
2023/04/06 00:02:07;;;;;;;2.30;2.05;;;;;;;2.62;100.00;98654.97;15279661;19;20104;-42
2023/04/06 00:07:33;;;;;;;2.75;2.08;;;;;;;2.60;100.00;98662.19;15277594;19;20047;-42
2023/04/06 00:13:00;;;;;;;2.42;1.80;;;;;;;2.62;100.00;98665.59;15279323;19;20022;-45
2023/04/06 00:18:26;;;;;;;3.45;2.03;;;;;;;2.60;100.00;98662.19;15274800;19;20018;-44
2023/04/06 00:23:51;;;;;;;5.45;2.00;;;;;;;2.57;100.00;98656.25;15279809;19;20031;-45
2023/04/06 00:29:19;;;;;;;3.30;1.95;;;;;;;2.55;100.00;98658.16;15271179;19;20096;-47
2023/04/06 00:34:44;;;;;;;3.10;2.05;;;;;;;2.57;100.00;98658.91;15279895;19;20015;-49
2023/04/06 00:40:11;;;;;;;3.28;2.25;;;;;;;2.52;100.00;98653.06;15272367;19;20104;-45
2023/04/06 00:45:38;;;;;;;3.10;2.40;;;;;;;2.51;100.00;98656.66;15276431;19;20101;-49
2023/04/06 00:51:04;;;;;;;3.17;2.47;;;;;;;2.43;100.00;98655.38;15275482;19;20015;-45
2023/04/06 00:56:30;;;;;;;3.47;2.10;;;;;;;2.37;100.00;98645.16;15274073;19;20031;-46
2023/04/06 01:01:59;;;;;;;5.13;2.42;;;;;;;2.31;100.00;98648.22;15277498;19;20019;-43
2023/04/06 01:07:29;;;;;;;3.80;2.60;;;;;;;2.23;100.00;98647.88;15276658;19;20018;-47
2023/04/06 01:12:59;;;;;;;3.78;2.60;;;;;;;2.17;100.00;98627.06;15277351;19;20082;-51
2023/04/06 01:18:38;;;;;;;5.72;2.30;;;;;;;2.10;100.00;98638.06;15271470;19;20026;-46
2023/04/06 01:24:12;;;;;;;3.45;2.40;;;;;;;2.06;100.00;98641.03;15273515;19;20027;-46
2023/04/06 01:30:00;;;;;;;3.00;2.15;;;;;;;1.97;100.00;98631.88;15265108;19;20042;-45
2023/04/06 01:35:51;;;;;;;2.83;2.20;;;;;;;1.87;100.00;98625.47;15274037;19;20025;-45
2023/04/06 01:41:19;;;;;;;2.42;2.05;;;;;;;1.78;100.00;98632.22;15273112;19;20051;-46
2023/04/06 01:46:45;;;;;;;3.90;2.30;;;;;;;1.52;100.00;98630.31;15271664;19;20018;-44
2023/04/06 01:52:10;;;;;;;3.72;2.30;;;;;;;1.32;100.00;98628.09;15271612;19;20378;-45
2023/04/06 01:57:41;;;;;;;4.88;2.40;;;;;;;1.26;100.00;98631.13;15268051;19;20014;-44
2023/04/06 02:03:17;;;;;;;3.28;2.72;;;;;;;0.85;100.00;98632.75;15265176;19;20023;-44
2023/04/06 02:08:49;;;;;;;4.13;2.40;;;;;;;0.83;100.00;98624.91;15268064;19;20026;-44
2023/04/06 02:14:16;;;;;;;2.53;2.30;;;;;;;0.79;100.00;98626.03;15270413;19;20035;-46
2023/04/06 02:19:43;;;;;;;3.53;2.38;;;;;;;0.76;100.00;98615.63;15265548;19;20021;-44
2023/04/06 02:25:08;;;;;;;4.38;2.70;;;;;;;0.71;100.00;98620.38;15270667;19;20039;-44
2023/04/06 02:30:36;;;;;;;2.83;2.53;;;;;;;0.65;100.00;98613.63;15264452;19;20026;-47
2023/04/06 02:36:01;;;;;;;3.15;2.30;;;;;;;0.63;100.00;98612.03;15266402;19;20039;-45
2023/04/06 02:41:27;;;;;;;2.55;2.30;;;;;;;0.58;100.00;98615.81;15269445;19;20032;-46
2023/04/06 02:46:55;;;;;;;3.08;2.15;;;;;;;0.57;100.00;98606.16;15267092;19;20471;-46
2023/04/06 02:52:22;;;;;;;3.42;2.47;;;;;;;0.54;100.00;98610.78;15269499;19;20362;-44
2023/04/06 02:57:47;;;;;;;2.47;2.15;;;;;;;0.51;100.00;98611.84;15265407;19;20109;-45
2023/04/06 03:03:23;;;;;;;3.72;2.40;;;;;;;0.48;100.00;98612.00;15265488;19;20018;-46
2023/04/06 03:08:52;;;;;;;3.50;2.30;;;;;;;0.45;100.00;98614.84;15254708;19;20101;-45
2023/04/06 03:14:21;;;;;;;2.72;2.15;;;;;;;0.38;100.00;98611.72;15261732;19;20010;-46
2023/04/06 03:19:50;;;;;;;3.13;2.38;;;;;;;0.33;100.00;98620.88;15257320;19;20070;-45
2023/04/06 03:25:16;;;;;;;2.95;2.28;;;;;;;0.31;100.00;98620.97;15283462;19;20483;-45
2023/04/06 03:30:45;;;;;;;2.63;2.30;;;;;;;0.28;100.00;98624.69;15277392;19;20043;-45
2023/04/06 03:36:38;;;;;;;3.92;2.40;;;;;;;0.32;100.00;98619.16;15281899;19;20026;-46
2023/04/06 03:42:05;;;;;;;3.13;2.33;;;;;;;0.29;100.00;98623.69;15276700;19;20275;-46
2023/04/06 03:47:36;;;;;;;3.30;2.30;;;;;;;0.26;100.00;98626.56;15277451;19;20022;-47
2023/04/06 03:53:05;;;;;;;3.00;2.22;;;;;;;0.25;100.00;98629.28;15279512;19;20026;-46
2023/04/06 03:58:36;;;;;;;3.35;2.50;;;;;;;0.21;100.00;98628.63;15277757;19;20023;-45
2023/04/06 04:04:04;;;;;;;3.25;2.30;;;;;;;0.22;100.00;98640.91;15278926;19;20030;-47
2023/04/06 04:09:31;;;;;;;4.57;2.25;;;;;;;0.19;100.00;98635.78;15275250;19;20018;-47
2023/04/06 04:14:56;;;;;;;2.75;2.22;;;;;;;0.17;100.00;98632.41;15276310;19;20034;-47
2023/04/06 04:20:21;;;;;;;2.97;2.55;;;;;;;0.13;100.00;98630.88;15275354;19;20018;-46
2023/04/06 04:25:50;;;;;;;4.43;2.65;;;;;;;0.10;100.00;98631.03;15277722;19;20018;-45
2023/04/06 04:31:17;;;;;;;3.55;2.63;;;;;;;0.08;100.00;98640.88;15277941;19;20493;-48
2023/04/06 04:36:47;;;;;;;3.78;2.72;;;;;;;0.07;100.00;98639.16;15279110;19;20022;-47
2023/04/06 04:42:34;;;;;;;3.55;2.40;;;;;;;0.07;100.00;98644.47;15278157;19;20014;-48
2023/04/06 04:48:08;;;;;;;3.15;2.42;;;;;;;0.08;100.00;98643.53;15273892;19;20043;-46
2023/04/06 04:53:37;;;;;;;;;;;;;;;0.05;100.00;98639.25;15277109;19;20014;-43
2023/04/06 04:59:11;;;;;;;3.58;2.35;;;;;;;0.12;100.00;98643.25;15272664;19;19918;-45
2023/04/06 05:04:42;;;;;;;3.90;2.40;;;;;;;0.10;100.00;98653.09;15275791;19;20535;-45
2023/04/06 05:10:11;;;;;;;3.30;2.35;;;;;;;0.12;100.00;98653.84;15271065;19;20018;-46
2023/04/06 05:15:44;;;;;;;5.60;2.25;;;;;;;0.12;100.00;98647.72;15266697;19;20667;-45
2023/04/06 05:21:15;;;;;;;2.85;2.10;;;;;;;0.06;100.00;98656.03;15275475;19;20022;-45
2023/04/06 05:26:49;;;;;;;3.75;2.25;;;;;;;0.06;100.00;98656.03;15273519;19;20018;-45
2023/04/06 05:32:21;;;;;;;2.83;2.35;;;;;;;0.17;100.00;98664.19;15272907;19;20090;-45
2023/04/06 05:37:46;;;;;;;2.35;2.13;;;;;;;0.23;100.00;98663.00;15272031;19;20022;-45
2023/04/06 05:43:11;;;;;;;3.25;2.25;;;;;;;0.28;100.00;98664.44;15271524;19;20881;-49
2023/04/06 05:48:44;;;;;;;3.72;2.20;;;;;;;0.30;100.00;98665.16;15264797;19;20049;-45
2023/04/06 05:54:14;;;;;;;2.67;2.15;;;;;;;0.38;100.00;98663.88;15272923;19;20074;-48
2023/04/06 05:59:44;;;;;;;3.45;2.25;;;;;;;0.46;100.00;98669.56;15266994;19;20011;-46
2023/04/06 06:05:25;;;;;;;3.17;2.22;;;;;;;0.51;100.00;98659.56;15276717;19;20021;-45
2023/04/06 06:10:55;;;;;;;4.57;2.70;;;;;;;0.61;100.00;98658.06;15269917;19;20010;-47
2023/04/06 06:16:21;;;;;;;3.40;2.95;;;;;;;0.76;100.00;98666.03;15269389;19;20018;-47
2023/04/06 06:21:48;;;;;;;4.63;3.00;;;;;;;0.87;100.00;98671.53;15271894;19;20031;-46
2023/04/06 06:27:14;;;;;;;4.43;2.90;;;;;;;1.00;100.00;98671.63;15269347;19;20023;-45
2023/04/06 06:32:39;;;;;;;6.00;2.40;;;;;;;1.14;100.00;98676.06;15271797;19;20043;-47
2023/04/06 06:38:09;;;;;;;3.88;2.70;;;;;;;1.27;100.00;98673.50;15271673;19;20018;-47
2023/04/06 06:43:34;;;;;;;4.50;2.30;;;;;;;1.41;100.00;98675.28;15269103;19;20055;-48
2023/04/06 06:49:01;;;;;;;3.03;2.45;;;;;;;1.57;100.00;98676.97;15271358;19;20303;-48
2023/04/06 06:54:28;;;;;;;3.60;2.50;;;;;;;1.73;100.00;98688.31;15269496;19;20047;-46
2023/04/06 06:59:53;;;;;;;3.55;2.05;;;;;;;1.92;100.00;98687.13;15283221;19;20489;-45
2023/04/06 07:05:18;;;;;;;3.22;2.30;;;;;;;2.22;100.00;98672.75;15287411;19;20035;-47
2023/04/06 07:10:50;;;;;;;3.08;2.03;;;;;;;2.50;100.00;98673.59;15276454;19;20024;-44
2023/04/06 07:16:16;;;;;;;3.35;2.08;;;;;;;2.30;100.00;98670.44;15283344;19;20022;-45
2023/04/06 07:21:41;;;;;;;5.57;2.10;;;;;;;2.46;100.00;98668.47;15287737;19;20018;-46
2023/04/06 07:27:08;;;;;;;2.42;2.22;;;;;;;2.73;100.00;98670.19;15280962;19;20021;-46
2023/04/06 07:32:58;;;;;;;;;;;;;;;;;;;;;
2023/04/06 07:38:25;;;;;;;5.22;2.08;;;;;;;3.20;100.00;98672.31;15318078;19;20381;-45
2023/04/06 07:43:53;;;;;;;3.72;1.92;;;;;;;3.37;100.00;98681.78;15276275;19;20047;-48
2023/04/06 07:49:20;;;;;;;3.55;1.98;;;;;;;3.62;100.00;98670.19;15275506;19;20028;-49
2023/04/06 07:54:48;;;;;;;2.10;1.90;;;;;;;3.78;99.59;98679.75;15282533;19;20010;-47
2023/04/06 08:00:18;;;;;;;2.88;1.98;;;;;;;4.01;98.60;98673.59;15274302;19;20018;-44
2023/04/06 08:05:43;;;;;;;4.82;2.10;;;;;;;4.18;96.70;98681.28;15283892;19;20050;-44
2023/04/06 08:11:08;;;;;;;2.40;1.92;;;;;;;4.40;100.00;98675.22;15281233;19;20605;-46
2023/04/06 08:16:36;;;;;;;2.25;1.92;;;;;;;4.61;89.32;98675.38;15279141;19;20396;-45
2023/04/06 08:22:02;;;;;;;2.35;1.92;;;;;;;4.77;81.34;98677.72;15282128;19;20038;-46
2023/04/06 08:27:27;;;;;;;1.88;1.50;;;;;;;4.98;84.41;98674.38;15279346;19;20124;-46
2023/04/06 08:32:54;;;;;;;3.03;1.90;;;;;;;5.14;80.22;98680.19;15276671;19;20360;-46
2023/04/06 08:38:19;;;;;;;2.28;1.70;;;;;;;5.37;76.26;98673.06;15279161;19;20023;-45
2023/04/06 08:43:50;;;;;;;2.60;2.00;;;;;;;5.51;78.02;98668.44;15279277;19;20014;-45
2023/04/06 08:49:19;;;;;;;2.00;1.80;;;;;;;5.70;75.24;98675.84;15277273;19;20527;-45
2023/04/06 08:54:45;;;;;;;2.75;2.08;;;;;;;6.06;73.07;98665.78;15278264;19;20028;-46
2023/04/06 09:00:19;;;;;;;2.63;1.98;;;;;;;6.21;66.94;98669.03;15272904;19;20471;-45
2023/04/06 09:05:49;;;;;;;2.75;2.17;;;;;;;6.48;65.16;98665.88;15273610;19;20698;-47
2023/04/06 09:11:15;;;;;;;3.78;2.30;;;;;;;6.72;65.53;98663.91;15275919;19;20058;-47
2023/04/06 09:16:45;;;;;;;1.88;1.75;;;;;;;6.99;60.70;98660.72;15277355;19;20073;-46
2023/04/06 09:22:15;;;;;;;2.30;2.05;;;;;;;7.12;63.22;98659.63;15269887;19;20033;-45
2023/04/06 09:27:41;;;;;;;2.85;1.70;;;;;;;7.29;52.50;98659.00;15274420;19;20109;-45
2023/04/06 09:33:07;;;;;;;3.65;1.42;;;;;;;7.42;55.39;98655.25;15270280;19;20602;-45
2023/04/06 09:38:34;;;;;;;1.73;1.27;;;;;;;7.49;52.32;98651.03;15275409;19;20010;-45
2023/04/06 09:44:00;;;;;;;1.92;1.60;;;;;;;7.60;55.47;98644.72;15274525;19;20015;-45
2023/04/06 09:49:27;;;;;;;1.92;1.70;;;;;;;7.77;54.45;98651.25;15269081;19;20086;-44
2023/04/06 09:54:59;;;;;;;2.72;1.50;;;;;;;7.96;55.42;98642.41;15271234;19;20088;-45
2023/04/06 10:00:32;;;;;;;4.37;1.53;;;;;;;8.10;51.65;98646.50;15271585;19;20102;-44
2023/04/06 10:06:00;;;;;;;1.85;1.40;;;;;;;8.23;55.60;98635.53;15272107;19;20488;-43
2023/04/06 10:11:28;;;;;;;2.15;1.60;;;;;;;8.22;53.34;98625.78;15275181;19;20020;-45
2023/04/06 10:16:53;;;;;;;2.78;1.40;;;;;;;8.26;53.15;98622.66;15271561;19;20438;-43
2023/04/06 10:22:24;;;;;;;3.13;1.48;;;;;;;8.57;52.53;98627.88;15270803;19;20035;-46
2023/04/06 10:28:02;;;;;;;1.63;1.42;;;;;;;8.62;53.03;98614.88;15272327;19;20086;-45
2023/04/06 10:33:30;;;;;;;2.78;1.50;;;;;;;8.61;53.18;98613.19;15286447;19;20437;-45
2023/04/06 10:39:00;;;;;;;1.70;1.50;;;;;;;8.69;51.81;98609.78;15280382;19;20022;-44
2023/04/06 10:44:34;;;;;;;2.60;1.50;;;;;;;8.89;52.27;98610.56;15288571;19;20448;-48
2023/04/06 10:49:58;;;;;;;3.50;1.63;;;;;;;9.09;49.70;98611.34;15282251;19;20026;-46
2023/04/06 10:55:25;;;;;;;1.88;1.20;;;;;;;9.05;49.79;98603.72;15289212;19;20027;-44
2023/04/06 11:00:54;;;;;;;2.97;1.60;;;;;;;8.98;49.06;98595.41;15282764;19;20358;-45
2023/04/06 11:06:20;;;;;;;1.83;1.40;;;;;;;9.35;50.57;98594.53;15287963;19;20905;-47
2023/04/06 11:11:44;;;;;;;1.88;1.40;;;;;;;9.30;50.25;98586.06;15278915;19;20078;-48
2023/04/06 11:17:13;;;;;;;1.80;1.13;;;;;;;9.41;48.71;98572.41;15285691;19;20031;-45
2023/04/06 11:22:37;;;;;;;2.55;1.38;;;;;;;9.32;47.05;98573.31;15279709;19;20046;-46
2023/04/06 11:28:03;;;;;;;1.30;1.20;;;;;;;9.48;49.19;98580.75;15281549;19;20027;-47
2023/04/06 11:33:31;;;;;;;2.88;1.20;;;;;;;9.50;46.62;98559.94;15283229;19;20014;-45
2023/04/06 11:38:56;;;;;;;2.05;1.30;;;;;;;9.71;48.58;98573.09;15281990;19;20029;-44
2023/04/06 11:44:32;;;;;;;2.50;1.38;;;;;;;9.80;46.21;98557.91;15278469;19;20733;-45
2023/04/06 11:50:00;;;;;;;2.92;1.20;;;;;;;9.59;45.56;98550.09;15279959;19;20094;-47
2023/04/06 11:55:25;;;;;;;1.90;1.30;;;;;;;9.72;46.73;98549.72;15284120;19;20073;-46
2023/04/06 12:00:59;;;;;;;2.13;1.20;;;;;;;9.88;45.88;98546.34;15278896;19;20502;-51
2023/04/06 12:06:27;;;;;;;1.63;1.30;;;;;;;10.08;47.39;98548.91;15281864;19;20031;-49
2023/04/06 12:11:53;;;;;;;2.92;1.30;;;;;;;10.37;50.41;98537.84;15282433;19;20019;-46
2023/04/06 12:17:18;;;;;;;3.67;1.30;;;;;;;10.58;48.43;98536.66;15272964;19;20022;-48
2023/04/06 12:22:46;;;;;;;1.92;1.20;;;;;;;10.53;44.62;98533.59;15277894;19;20018;-51
2023/04/06 12:28:11;;;;;;;1.55;1.20;;;;;;;10.77;47.87;98525.66;15280818;19;20058;-44
2023/04/06 12:33:35;;;;;;;1.38;1.27;;;;;;;10.92;47.30;98522.38;15280855;19;20043;-46
2023/04/06 12:39:03;;;;;;;1.55;1.27;;;;;;;11.26;42.92;98518.81;15278399;19;20556;-45
2023/04/06 12:44:29;;;;;;;1.27;1.17;;;;;;;11.55;46.93;98517.56;14771033;19;10000522;-46
2023/04/06 12:49:53;;;;;;;1.52;1.17;;;;;;;11.91;44.30;98506.47;15273559;19;20425;-45
2023/04/06 12:55:21;;;;;;;2.15;1.30;;;;;;;11.91;44.08;98509.16;15275976;19;20783;-46
2023/04/06 13:00:53;;;;;;;2.80;1.10;;;;;;;12.20;42.36;98496.19;15273542;19;20067;-46
2023/04/06 13:06:19;;;;;;;2.10;1.10;;;;;;;12.56;43.34;98491.25;15278768;19;20036;-47
2023/04/06 13:11:47;;;;;;;1.67;1.30;;;;;;;12.44;40.64;98488.06;15278572;19;20037;-48
2023/04/06 13:17:11;;;;;;;3.10;1.20;;;;;;;12.45;40.75;98487.06;15277095;19;20023;-50
2023/04/06 13:22:36;;;;;;;1.42;1.00;;;;;;;12.92;43.88;98479.97;15268162;19;20018;-46
2023/04/06 13:28:04;;;;;;;2.08;1.20;;;;;;;13.42;42.13;98477.06;15275775;19;20368;-45
2023/04/06 13:33:30;;;;;;;1.20;1.10;;;;;;;13.69;40.35;98470.28;15276431;19;20394;-45
2023/04/06 13:38:55;;;;;;;1.20;0.98;;;;;;;13.30;38.64;98468.47;15269693;19;20100;-46
2023/04/06 13:44:23;;;;;;;2.17;1.00;;;;;;;13.42;39.57;98460.84;15274334;19;20119;-48
2023/04/06 13:49:48;;;;;;;1.40;1.20;;;;;;;13.70;38.27;98453.03;15271345;19;20339;-46
2023/04/06 13:55:15;;;;;;;1.20;1.10;;;;;;;14.40;40.16;98458.34;15270279;19;20462;-51
2023/04/06 14:00:49;;;;;;;1.52;1.15;;;;;;;14.88;40.39;98449.88;15266287;19;20018;-50
2023/04/06 14:06:15;;;;;;;2.97;1.10;;;;;;;15.00;37.85;98446.69;15272191;19;20018;-54
2023/04/06 14:11:48;;;;;;;4.95;1.02;;;;;;;15.37;40.53;98452.97;15272224;19;20029;-55
2023/04/06 14:17:15;;;;;;;1.00;1.00;;;;;;;15.57;36.08;98442.31;15273511;19;20049;-55
2023/04/06 14:22:40;;;;;;;2.30;0.95;;;;;;;15.89;38.42;98442.00;15272526;19;20019;-52
2023/04/06 14:28:04;;;;;;;3.00;1.08;;;;;;;15.66;36.34;98434.88;15268522;19;20018;-55
2023/04/06 14:33:32;;;;;;;1.63;1.00;;;;;;;16.06;37.25;98434.41;15274891;19;20014;-54
2023/04/06 14:38:56;;;;;;;1.42;1.00;;;;;;;16.40;36.06;98435.53;15271474;19;20399;-57
2023/04/06 14:44:21;;;;;;;2.33;0.93;;;;;;;16.59;38.28;98425.81;15272536;19;20053;-56
2023/04/06 14:49:48;;;;;;;1.20;0.90;;;;;;;17.02;36.64;98427.50;15274750;19;20036;-55
2023/04/06 14:55:14;;;;;;;1.17;1.00;;;;;;;16.91;37.65;98421.56;15270906;19;20467;-54
2023/04/06 15:00:47;;;;;;;1.17;1.02;;;;;;;17.20;35.82;98426.97;15258373;19;20476;-52
2023/04/06 15:06:19;;;;;;;1.00;0.90;;;;;;;17.20;34.78;98421.50;15257330;19;20021;-52
2023/04/06 15:11:44;;;;;;;1.83;1.17;;;;;;;17.38;36.64;98413.63;15262722;19;20018;-52
2023/04/06 15:17:09;;;;;;;2.13;0.90;;;;;;;17.52;36.05;98411.75;15266561;19;20021;-49
2023/04/06 15:22:37;;;;;;;2.15;1.00;;;;;;;17.32;36.11;98408.16;15219345;19;20018;-50
2023/04/06 15:28:01;;;;;;;1.73;1.13;;;;;;;17.31;35.75;98418.19;15270986;19;20014;-53
2023/04/06 15:33:26;;;;;;;1.20;1.00;;;;;;;17.63;36.91;98409.47;15275784;19;20280;-54
2023/04/06 15:38:54;;;;;;;1.33;1.20;;;;;;;17.92;35.46;98410.97;15270233;19;20021;-55
2023/04/06 15:44:19;;;;;;;1.33;1.10;;;;;;;17.76;36.95;98401.31;15270435;19;20022;-49
2023/04/06 15:49:43;;;;;;;2.13;1.10;;;;;;;17.37;32.08;98402.91;15271821;19;20028;-56
2023/04/06 15:55:17;;;;;;;1.50;1.10;;;;;;;17.33;34.51;98404.41;15274380;19;20010;-49
2023/04/06 16:00:49;;;;;;;1.52;1.17;;;;;;;17.27;34.00;98403.34;15263688;19;20017;-59
2023/04/06 16:06:14;;;;;;;1.95;1.05;;;;;;;17.34;35.23;98400.63;15269809;19;20018;-56
2023/04/06 16:11:41;;;;;;;1.80;1.15;;;;;;;17.06;34.60;98396.97;15271401;19;20032;-57
2023/04/06 16:17:05;;;;;;;1.13;0.93;;;;;;;17.03;34.47;98399.25;15274036;19;20021;-57
2023/04/06 16:22:30;;;;;;;1.00;0.90;;;;;;;17.30;37.14;98404.78;15271497;19;20751;-51
2023/04/06 16:27:58;;;;;;;1.30;1.20;;;;;;;17.20;33.92;98411.47;15264538;19;20440;-52
2023/04/06 16:33:23;;;;;;;2.58;1.40;;;;;;;17.16;36.29;98406.66;15264726;19;20082;-54
2023/04/06 16:38:48;;;;;;;2.05;1.10;;;;;;;17.32;37.11;98410.88;15268983;19;20021;-54
2023/04/06 16:44:17;;;;;;;3.85;1.33;;;;;;;16.95;37.93;98403.00;15261300;19;20258;-48
2023/04/06 16:49:41;;;;;;;1.35;1.20;;;;;;;16.33;39.02;98403.69;15264124;19;20372;-54
2023/04/06 16:55:07;;;;;;;1.30;1.20;;;;;;;15.32;41.64;98395.69;15266644;19;20701;-52
2023/04/06 17:00:46;;;;;;;1.83;1.10;;;;;;;14.43;40.83;98402.91;15264487;19;20014;-45
2023/04/06 17:06:12;;;;;;;1.38;1.23;;;;;;;13.62;41.63;98403.50;15270229;19;20102;-46
2023/04/06 17:11:37;;;;;;;2.30;1.40;;;;;;;13.02;45.38;98411.31;15272237;19;20024;-48
2023/04/06 17:17:06;;;;;;;1.30;1.10;;;;;;;12.46;45.42;98404.13;15274633;19;20025;-45
2023/04/06 17:22:31;;;;;;;1.50;1.23;;;;;;;11.85;46.57;98409.94;15272913;19;20019;-45
2023/04/06 17:27:56;;;;;;;2.08;1.50;;;;;;;11.25;47.54;98407.41;15273389;19;20070;-51
2023/04/06 17:33:23;;;;;;;1.50;1.30;;;;;;;10.75;49.54;98417.22;15275616;19;20025;-49
2023/04/06 17:38:48;;;;;;;3.72;1.50;;;;;;;10.20;49.62;98421.13;15269186;19;20470;-48
2023/04/06 17:44:13;;;;;;;2.33;1.60;;;;;;;9.86;51.18;98427.28;15268336;19;20010;-49
2023/04/06 17:49:40;;;;;;;3.03;1.40;;;;;;;9.50;52.43;98432.69;15269071;19;20018;-48
2023/04/06 17:55:05;;;;;;;3.97;1.90;;;;;;;9.20;54.62;98432.06;15274117;19;20078;-48
2023/04/06 18:00:36;;;;;;;3.95;1.90;;;;;;;8.87;55.19;98437.06;15269073;19;20014;-53
2023/04/06 18:06:11;;;;;;;2.63;2.10;;;;;;;8.63;55.92;98441.16;15269588;19;20467;-51
2023/04/06 18:11:35;;;;;;;3.60;1.90;;;;;;;8.47;56.93;98447.13;15272208;19;20017;-46
2023/04/06 18:17:01;;;;;;;3.78;1.85;;;;;;;8.28;56.97;98451.59;15272943;19;20042;-50
2023/04/06 18:22:28;;;;;;;5.55;2.35;;;;;;;8.11;57.54;98465.75;15271461;19;20018;-47
2023/04/06 18:27:52;;;;;;;3.00;2.33;;;;;;;7.96;57.66;98463.50;15269967;19;20483;-50
2023/04/06 18:33:17;;;;;;;3.95;2.05;;;;;;;7.84;58.23;98470.00;15273780;19;20021;-48
2023/04/06 18:38:46;;;;;;;4.00;2.00;;;;;;;7.72;57.57;98470.16;15270923;19;20021;-50
2023/04/06 18:44:12;;;;;;;3.25;1.95;;;;;;;7.59;58.40;98466.91;15268076;19;20015;-49
2023/04/06 18:49:37;;;;;;;3.30;2.20;;;;;;;7.47;58.79;98473.41;15268407;19;20018;-46
2023/04/06 18:55:04;;;;;;;5.20;2.30;;;;;;;7.38;59.29;98486.66;15287184;19;20018;-51
2023/04/06 19:00:29;;;;;;;3.57;2.10;;;;;;;7.26;59.37;98474.38;15280413;19;20018;-48
2023/04/06 19:05:53;;;;;;;2.63;2.00;;;;;;;7.20;61.17;98480.28;15284852;19;20017;-48
2023/04/06 19:11:21;;;;;;;3.97;2.35;;;;;;;7.05;61.18;98475.31;15288457;19;20078;-45
2023/04/06 19:16:50;;;;;;;2.90;2.20;;;;;;;6.92;61.61;98474.72;15279465;19;20019;-49
2023/04/06 19:22:16;;;;;;;6.38;2.50;;;;;;;6.86;61.28;98475.28;15274449;19;20003;-48
2023/04/06 19:27:43;;;;;;;2.80;2.20;;;;;;;6.75;61.94;98474.41;15277461;19;20010;-46
2023/04/06 19:33:09;;;;;;;2.38;2.17;;;;;;;6.68;62.28;98477.75;15280534;19;20017;-48
2023/04/06 19:38:33;;;;;;;3.65;2.30;;;;;;;6.59;63.46;98482.09;15274070;19;20039;-49
2023/04/06 19:44:01;;;;;;;4.75;2.45;;;;;;;6.54;63.30;98481.63;15278618;19;20804;-46
2023/04/06 19:49:27;;;;;;;3.88;2.25;;;;;;;6.38;66.22;98485.66;15273827;19;20014;-46
2023/04/06 19:54:51;;;;;;;3.72;2.60;;;;;;;6.26;70.39;98492.91;15280107;19;20039;-49
2023/04/06 20:00:20;;;;;;;3.67;2.55;;;;;;;6.20;71.14;98495.25;15265631;19;20018;-48
2023/04/06 20:05:46;;;;;;;3.08;2.70;;;;;;;6.10;71.71;98488.03;15274743;19;20011;-51
2023/04/06 20:11:12;;;;;;;4.80;2.40;;;;;;;5.98;74.26;98486.34;15280234;19;20017;-45
2023/04/06 20:16:40;;;;;;;3.03;2.53;;;;;;;5.79;77.13;98482.59;15278958;19;20025;-48
2023/04/06 20:22:05;;;;;;;4.65;2.90;;;;;;;5.70;82.37;98486.03;15272538;19;20695;-47
2023/04/06 20:27:29;;;;;;;4.47;2.78;;;;;;;5.62;82.97;98492.03;15272502;19;20744;-45
2023/04/06 20:32:57;;;;;;;4.90;2.63;;;;;;;5.58;87.71;98487.06;15277353;19;20044;-49
2023/04/06 20:38:22;;;;;;;4.90;2.60;;;;;;;5.50;90.02;98483.19;15279167;19;20029;-48
2023/04/06 20:43:50;;;;;;;3.45;2.80;;;;;;;5.41;95.17;98486.63;15276675;19;20014;-49
2023/04/06 20:49:20;;;;;;;3.95;2.95;;;;;;;5.35;97.33;98479.13;15278489;19;20026;-50
2023/04/06 20:54:45;;;;;;;3.53;2.80;;;;;;;5.21;100.00;98478.44;15254297;19;20011;-49
2023/04/06 21:00:18;;;;;;;3.58;2.92;;;;;;;5.12;100.00;98473.81;15270313;19;20010;-47
2023/04/06 21:05:52;;;;;;;3.53;3.22;;;;;;;5.02;100.00;98478.22;15271603;19;20455;-46
2023/04/06 21:11:16;;;;;;;4.45;3.17;;;;;;;4.99;100.00;98478.50;15275415;19;20078;-47
2023/04/06 21:16:41;;;;;;;4.20;3.20;;;;;;;4.90;100.00;98469.41;15271542;19;20022;-48
2023/04/06 21:22:08;;;;;;;3.92;3.10;;;;;;;4.88;100.00;98468.69;15269590;19;20033;-49
2023/04/06 21:27:33;;;;;;;6.13;3.75;;;;;;;4.80;100.00;98471.97;15275427;19;20011;-49
2023/04/06 21:32:57;;;;;;;6.15;3.42;;;;;;;4.77;100.00;98466.84;15276479;19;20033;-46
2023/04/06 21:38:25;;;;;;;6.03;3.45;;;;;;;4.75;100.00;98468.81;15273477;19;20014;-47
2023/04/06 21:43:50;;;;;;;4.22;3.25;;;;;;;4.69;100.00;98471.97;15278393;19;20011;-46
2023/04/06 21:49:15;;;;;;;3.75;3.35;;;;;;;4.63;100.00;98459.97;15275795;19;20026;-46
2023/04/06 21:54:45;;;;;;;4.15;3.58;;;;;;;4.56;100.00;98451.59;15273817;19;20014;-48
2023/04/06 22:00:11;;;;;;;5.10;3.58;;;;;;;4.47;100.00;98457.69;15272224;19;20022;-46
2023/04/06 22:05:35;;;;;;;4.25;3.70;;;;;;;4.40;100.00;98449.31;15271974;19;20035;-44
2023/04/06 22:11:14;;;;;;;4.60;3.60;;;;;;;4.35;100.00;98454.13;15274089;19;20516;-49
2023/04/06 22:16:39;;;;;;;4.15;3.60;;;;;;;4.26;100.00;98454.88;15275384;19;20019;-49
2023/04/06 22:22:04;;;;;;;5.18;3.72;;;;;;;4.23;100.00;98447.13;15274320;19;20093;-47
2023/04/06 22:27:31;;;;;;;5.57;3.63;;;;;;;4.13;100.00;98449.66;15272367;19;20022;-48
2023/04/06 22:32:56;;;;;;;4.35;3.58;;;;;;;4.05;100.00;98446.75;15269564;19;20082;-46
2023/04/06 22:38:21;;;;;;;5.00;3.85;;;;;;;3.97;100.00;98445.50;15270074;19;20010;-48
2023/04/06 22:43:48;;;;;;;5.40;3.40;;;;;;;3.93;100.00;98440.53;15272099;19;20038;-46
2023/04/06 22:49:13;;;;;;;4.20;3.63;;;;;;;3.91;100.00;98438.00;15272628;19;20029;-46
2023/04/06 22:54:37;;;;;;;3.72;3.40;;;;;;;3.88;100.00;98440.91;15273907;19;20015;-46
2023/04/06 23:00:06;;;;;;;3.83;3.40;;;;;;;3.78;100.00;98438.09;15265845;19;20456;-47
2023/04/06 23:05:32;;;;;;;3.83;3.40;;;;;;;3.74;100.00;98430.44;15270049;19;20085;-49
2023/04/06 23:10:57;;;;;;;5.22;3.53;;;;;;;3.80;100.00;98432.66;15267316;19;20033;-48
2023/04/06 23:16:24;;;;;;;4.75;3.40;;;;;;;3.81;100.00;98439.69;15275701;19;20420;-46
2023/04/06 23:21:50;;;;;;;4.32;3.55;;;;;;;3.72;100.00;98433.25;15270770;19;20039;-47
2023/04/06 23:27:15;;;;;;;4.40;3.60;;;;;;;3.68;100.00;98427.31;15268784;19;20479;-46
2023/04/06 23:32:42;;;;;;;4.45;3.78;;;;;;;3.64;100.00;98423.16;15269376;19;20023;-47
2023/04/06 23:38:08;;;;;;;5.78;3.78;;;;;;;3.58;100.00;98422.78;15272572;19;20035;-48
2023/04/06 23:43:33;;;;;;;5.35;4.22;;;;;;;3.48;100.00;98425.28;15277473;19;20026;-45
2023/04/06 23:49:00;;;;;;;5.10;3.63;;;;;;;3.44;100.00;98418.50;15281270;19;20014;-49
2023/04/06 23:54:25;;;;;;;5.25;4.30;;;;;;;3.44;100.00;98422.00;15282719;19;20010;-48
2023/04/06 23:59:50;;;;;;;6.13;3.97;;;;;;;3.26;100.00;98418.91;15278391;19;20010;-47
